Time;durP1;ratioP1;P1;durP2;ratioP2;P2;SDS_P1;SDS_P2;PMS_P1;PMS_P2;Temp;Humidity;BMP_temperature;BMP_pressure;BME280_temperature;BME280_humidity;BME280_pressure;Samples;Min_cycle;Max_cycle;Signal;HPM_P1;HPM_P2
2023/01/24 00:00:19;;;;;;;10.18;8.77;;;;;;;5.17;56.18;103185.75;682727;29;1171;-82
2023/01/24 00:00:40;;;;;;;10.18;9.07;;;;;;;5.14;56.14;103180.31;682779;29;1165;-82
2023/01/24 00:01:00;;;;;;;10.20;9.10;;;;;;;5.11;55.86;103181.72;680103;29;1487;-82
2023/01/24 00:01:22;;;;;;;10.27;9.18;;;;;;;5.04;56.23;103190.63;682557;28;1171;-82
2023/01/24 00:01:42;;;;;;;9.10;8.20;;;;;;;4.95;56.46;103174.28;688159;28;1248;-82
2023/01/24 00:02:03;;;;;;;9.55;8.55;;;;;;;4.89;56.58;103183.28;685388;28;1079;-82
2023/01/24 00:02:23;;;;;;;9.90;8.70;;;;;;;4.93;56.90;103187.06;682711;29;1195;-82
2023/01/24 00:02:44;;;;;;;10.70;9.00;;;;;;;4.94;56.51;103196.66;680133;29;1404;-82
2023/01/24 00:03:04;;;;;;;9.85;8.48;;;;;;;4.89;56.67;103183.28;682731;28;1100;-82
2023/01/24 00:03:25;;;;;;;9.63;8.20;;;;;;;4.90;56.95;103189.38;682687;28;1160;-82
2023/01/24 00:03:46;;;;;;;8.88;7.90;;;;;;;4.81;56.91;103173.00;682815;29;1306;-82
2023/01/24 00:04:07;;;;;;;9.27;8.07;;;;;;;4.87;56.82;103178.75;685253;28;1422;-82
2023/01/24 00:04:28;;;;;;;8.98;8.07;;;;;;;4.83;56.81;103174.97;685400;28;1260;-82
2023/01/24 00:04:48;;;;;;;9.17;8.20;;;;;;;4.82;56.91;103169.66;682748;28;1111;-82
2023/01/24 00:05:09;;;;;;;9.40;8.40;;;;;;;4.83;56.67;103176.66;685272;28;1082;-82
2023/01/24 00:05:32;;;;;;;9.67;8.63;;;;;;;4.85;56.98;103181.19;685774;28;944;-82
2023/01/24 00:05:53;;;;;;;9.60;8.60;;;;;;;4.86;56.62;103180.44;680224;29;851;-82
2023/01/24 00:06:14;;;;;;;9.00;8.10;;;;;;;4.90;56.57;103190.28;680068;29;1065;-82
2023/01/24 00:06:34;;;;;;;8.85;7.95;;;;;;;4.93;56.53;103194.84;687910;28;1288;-82
2023/01/24 00:06:55;;;;;;;9.20;8.30;;;;;;;4.88;56.81;103186.66;688386;28;1147;-82
2023/01/24 00:07:15;;;;;;;9.77;8.77;;;;;;;4.87;56.81;103187.44;683025;28;1473;-82
2023/01/24 00:07:36;;;;;;;9.90;8.70;;;;;;;4.83;56.84;103176.66;685886;28;1236;-81
2023/01/24 00:07:56;;;;;;;9.65;8.50;;;;;;;4.90;57.02;103189.38;685982;28;1075;-82
2023/01/24 00:08:19;;;;;;;9.32;8.30;;;;;;;4.85;56.79;103181.19;688394;28;1201;-82
2023/01/24 00:08:40;;;;;;;9.60;8.60;;;;;;;4.85;57.11;103186.38;686017;28;784;-82
2023/01/24 00:09:01;;;;;;;9.65;8.65;;;;;;;4.84;57.13;103181.06;683215;29;1123;-82
2023/01/24 00:09:21;;;;;;;9.30;8.40;;;;;;;4.84;56.82;103174.19;683118;28;1284;-82
2023/01/24 00:09:42;;;;;;;9.00;8.10;;;;;;;4.82;57.00;103180.91;685486;28;1136;-82
2023/01/24 00:10:05;;;;;;;8.82;7.93;;;;;;;4.83;56.98;103180.16;683180;29;1146;-82
2023/01/24 00:10:25;;;;;;;9.13;8.23;;;;;;;4.82;57.09;103182.59;680582;29;1090;-82
2023/01/24 00:10:47;;;;;;;9.13;8.23;;;;;;;4.88;57.29;103188.31;683208;29;795;-83
2023/01/24 00:11:10;;;;;;;9.27;8.38;;;;;;;4.83;57.02;103180.16;685706;28;1045;-81
2023/01/24 00:11:30;;;;;;;9.52;8.52;;;;;;;4.81;57.16;103171.34;688624;28;1040;-82
2023/01/24 00:11:51;;;;;;;10.00;8.83;;;;;;;4.87;57.05;103183.91;689703;28;740;-82
2023/01/24 00:12:12;;;;;;;9.80;8.33;;;;;;;4.86;56.98;103183.03;685828;28;1060;-82
2023/01/24 00:12:32;;;;;;;9.60;8.40;;;;;;;4.80;56.76;103177.28;680560;29;1076;-82
2023/01/24 00:12:53;;;;;;;9.50;8.37;;;;;;;4.83;57.02;103187.91;683260;29;1009;-82
2023/01/24 00:13:14;;;;;;;9.40;8.30;;;;;;;4.93;56.93;103194.84;685751;28;1163;-82
2023/01/24 00:13:36;;;;;;;9.45;8.35;;;;;;;4.88;56.86;103183.16;688576;28;1353;-82
2023/01/24 00:13:57;;;;;;;8.93;8.02;;;;;;;4.90;57.08;103200.63;688550;28;1233;-82
2023/01/24 00:14:17;;;;;;;8.95;8.02;;;;;;;4.88;56.81;103183.16;688493;28;1080;-82
2023/01/24 00:14:38;;;;;;;9.03;8.13;;;;;;;4.84;57.05;103184.53;687960;28;1205;-82
2023/01/24 00:14:59;;;;;;;9.70;8.70;;;;;;;4.83;56.79;103181.84;688608;28;1216;-83
2023/01/24 00:15:19;;;;;;;9.70;8.70;;;;;;;4.86;57.09;103183.03;688521;28;1267;-83
2023/01/24 00:15:40;;;;;;;9.60;8.60;;;;;;;4.90;56.58;103192.88;686466;28;1019;-83
2023/01/24 00:16:05;;;;;;;9.40;8.40;;;;;;;4.89;56.66;103187.53;688765;28;1177;-83
2023/01/24 00:16:25;;;;;;;9.70;8.70;;;;;;;4.82;56.80;103180.91;691204;28;992;-82
2023/01/24 00:16:46;;;;;;;10.10;8.73;;;;;;;4.83;56.74;103177.56;688300;28;1164;-82
2023/01/24 00:17:07;;;;;;;10.07;8.80;;;;;;;4.84;56.72;103183.66;688459;28;1283;-82
2023/01/24 00:17:28;;;;;;;9.96;8.68;;;;;;;4.87;56.82;103182.25;688562;28;1838;-82
2023/01/24 00:17:48;;;;;;;9.60;8.60;;;;;;;4.87;56.95;103184.84;685923;28;1222;-82
2023/01/24 00:18:09;;;;;;;10.07;8.77;;;;;;;4.89;56.61;103183.28;685837;28;1008;-82
2023/01/24 00:18:29;;;;;;;9.87;8.60;;;;;;;4.89;56.48;103190.13;688608;28;1233;-82
2023/01/24 00:18:50;;;;;;;9.85;8.55;;;;;;;4.92;56.59;103199.09;685864;28;887;-82
2023/01/24 00:19:11;;;;;;;9.18;8.18;;;;;;;4.84;56.73;103183.66;682991;28;1910;-82
2023/01/24 00:19:32;;;;;;;8.82;7.93;;;;;;;4.85;56.75;103186.38;685931;28;1380;-81
2023/01/24 00:19:52;;;;;;;8.77;7.88;;;;;;;4.79;56.88;103181.53;685895;28;1057;-82
2023/01/24 00:20:13;;;;;;;8.70;7.80;;;;;;;4.83;56.67;103180.16;688435;28;1206;-82
2023/01/24 00:20:34;;;;;;;9.27;8.23;;;;;;;4.78;57.02;103173.63;685877;28;1210;-82
2023/01/24 00:21:02;;;;;;;9.48;8.10;;;;;;;4.86;56.65;103185.63;685932;28;1165;-82
2023/01/24 00:21:24;;;;;;;9.30;8.20;;;;;;;4.89;56.83;103190.13;685912;28;1089;-83
2023/01/24 00:21:44;;;;;;;9.07;8.18;;;;;;;4.81;56.79;103179.09;683245;29;1247;-83
2023/01/24 00:22:06;;;;;;;9.32;8.43;;;;;;;4.81;56.82;103173.00;683047;29;1093;-82
2023/01/24 00:22:27;;;;;;;9.60;8.60;;;;;;;4.79;56.50;103173.78;680503;29;1068;-82
2023/01/24 00:22:47;;;;;;;9.80;8.63;;;;;;;4.82;56.72;103180.00;680668;29;757;-82
2023/01/24 00:23:08;;;;;;;10.10;8.73;;;;;;;4.79;56.49;103173.78;680548;29;1092;-82
2023/01/24 00:23:29;;;;;;;9.60;8.60;;;;;;;4.79;56.67;103184.13;680550;29;1144;-81
2023/01/24 00:23:52;;;;;;;10.50;9.10;;;;;;;4.89;56.71;103192.72;680641;29;1129;-82
2023/01/24 00:24:13;;;;;;;10.45;9.05;;;;;;;4.86;56.75;103185.63;680454;29;1208;-82
2023/01/24 00:24:34;;;;;;;10.43;8.75;;;;;;;4.86;56.47;103183.03;680586;29;968;-82
2023/01/24 00:24:55;;;;;;;10.30;8.68;;;;;;;4.85;56.73;103181.19;683297;29;763;-82
2023/01/24 00:25:24;;;;;;;10.38;8.85;;;;;;;4.81;56.97;103179.09;685690;28;1283;-82
2023/01/24 00:25:45;;;;;;;9.35;8.35;;;;;;;4.84;56.67;103178.47;682721;29;766;-82
2023/01/24 00:26:07;;;;;;;9.00;8.10;;;;;;;4.88;56.61;103186.66;682978;28;1382;-82
2023/01/24 00:26:27;;;;;;;9.10;8.20;;;;;;;4.82;56.36;103180.91;683118;28;1383;-82
2023/01/24 00:26:48;;;;;;;9.63;8.63;;;;;;;4.83;56.77;103176.66;685598;28;1037;-82
2023/01/24 00:27:08;;;;;;;9.70;8.70;;;;;;;4.81;56.43;103176.53;688441;28;1120;-82
2023/01/24 00:27:31;;;;;;;10.13;8.70;;;;;;;4.86;56.40;103192.47;688441;28;1288;-82
2023/01/24 00:27:51;;;;;;;9.40;8.32;;;;;;;4.79;56.59;103178.06;688481;28;1113;-82
2023/01/24 00:28:12;;;;;;;9.25;8.25;;;;;;;4.76;56.57;103176.09;685622;28;1559;-82
2023/01/24 00:28:34;;;;;;;9.18;8.18;;;;;;;4.88;56.72;103197.00;685970;28;1080;-82
2023/01/24 00:28:54;;;;;;;9.73;8.60;;;;;;;4.79;56.55;103175.47;680572;29;935;-82
2023/01/24 00:29:17;;;;;;;10.10;9.00;;;;;;;4.82;56.92;103186.09;683203;29;1080;-82
2023/01/24 00:29:38;;;;;;;10.45;9.35;;;;;;;4.84;56.60;103184.53;685974;28;1160;-82
2023/01/24 00:29:59;;;;;;;9.83;8.83;;;;;;;4.80;56.82;103177.28;688560;28;1040;-82
2023/01/24 00:30:19;;;;;;;9.88;8.30;;;;;;;4.85;56.58;103186.38;688376;28;1395;-82
2023/01/24 00:30:40;;;;;;;9.50;8.00;;;;;;;4.78;56.62;103178.81;688685;28;859;-82
2023/01/24 00:31:03;;;;;;;9.55;8.25;;;;;;;4.88;56.66;103202.19;685773;28;1295;-81
2023/01/24 00:31:24;;;;;;;9.50;8.50;;;;;;;4.85;56.87;103196.72;683104;28;1150;-82
2023/01/24 00:31:45;;;;;;;9.63;8.63;;;;;;;4.79;56.60;103180.66;685921;28;1253;-82
2023/01/24 00:32:05;;;;;;;9.43;8.52;;;;;;;4.83;56.55;103187.91;685806;28;1068;-82
2023/01/24 00:32:26;;;;;;;9.90;8.90;;;;;;;4.90;56.68;103179.00;685882;28;1087;-81
2023/01/24 00:32:47;;;;;;;9.40;8.50;;;;;;;5.01;56.31;103187.75;686001;28;795;-81
2023/01/24 00:33:07;;;;;;;9.20;8.30;;;;;;;4.89;56.33;103172.94;683139;28;940;-82
2023/01/24 00:33:28;;;;;;;9.03;8.13;;;;;;;5.01;56.45;103182.56;680485;29;1026;-82
2023/01/24 00:33:49;;;;;;;9.20;8.20;;;;;;;5.05;56.07;103187.25;685890;28;1070;-82
2023/01/24 00:34:09;;;;;;;9.45;8.45;;;;;;;5.03;55.89;103191.41;688386;28;1133;-82
2023/01/24 00:34:32;;;;;;;9.50;8.50;;;;;;;5.02;55.99;103176.63;683120;28;1317;-82
2023/01/24 00:34:53;;;;;;;9.38;8.38;;;;;;;5.01;55.63;103178.31;683180;29;832;-82
2023/01/24 00:35:13;;;;;;;9.03;8.13;;;;;;;5.00;56.16;103184.25;685709;28;1197;-82
2023/01/24 00:35:34;;;;;;;9.30;8.40;;;;;;;5.07;56.13;103199.59;683224;28;1112;-82
2023/01/24 00:35:55;;;;;;;9.70;8.70;;;;;;;5.08;55.99;103177.16;685999;28;844;-82
2023/01/24 00:36:15;;;;;;;10.10;9.00;;;;;;;5.13;55.81;103182.75;685732;28;1072;-82
2023/01/24 00:36:36;;;;;;;9.93;8.85;;;;;;;5.15;56.07;103171.78;685807;28;1074;-82
2023/01/24 00:36:56;;;;;;;9.82;8.82;;;;;;;5.25;55.46;103185.53;683103;29;819;-82
2023/01/24 00:37:17;;;;;;;9.60;8.60;;;;;;;5.15;55.70;103179.53;683482;28;1081;-82
2023/01/24 00:37:38;;;;;;;9.60;8.60;;;;;;;5.08;55.53;103179.75;682781;29;1080;-82
2023/01/24 00:37:59;;;;;;;9.10;8.20;;;;;;;4.97;56.08;103181.38;680513;29;1271;-82
2023/01/24 00:38:21;;;;;;;9.38;8.48;;;;;;;5.00;56.04;103191.09;683207;29;1175;-83
2023/01/24 00:38:41;;;;;;;9.60;8.70;;;;;;;5.01;56.33;103198.09;680395;29;929;-82
2023/01/24 00:39:02;;;;;;;9.68;8.68;;;;;;;4.85;56.40;103177.72;683037;29;1140;-82
2023/01/24 00:39:23;;;;;;;9.50;8.50;;;;;;;5.03;56.06;103194.88;683131;29;1911;-82
2023/01/24 00:39:43;;;;;;;9.20;8.23;;;;;;;4.89;56.43;103193.66;680530;29;1247;-82
2023/01/24 00:40:08;;;;;;;9.15;8.25;;;;;;;4.87;56.40;103179.66;680262;29;993;-83
2023/01/24 00:40:29;;;;;;;8.88;7.97;;;;;;;4.86;56.49;103183.03;680494;29;1390;-81
2023/01/24 00:40:59;;;;;;;8.80;7.90;;;;;;;5.01;56.42;103187.75;685577;28;1248;-82
2023/01/24 00:41:20;;;;;;;8.45;7.55;;;;;;;5.01;56.36;103193.84;688352;28;1537;-82
2023/01/24 00:41:40;;;;;;;9.00;7.85;;;;;;;4.91;56.36;103192.09;691286;28;846;-82
2023/01/24 00:42:01;;;;;;;9.70;8.60;;;;;;;4.89;56.39;103193.66;691217;28;1152;-82
2023/01/24 00:42:21;;;;;;;10.67;9.30;;;;;;;4.87;56.40;103195.19;685689;28;1211;-82
2023/01/24 00:42:42;;;;;;;10.68;9.30;;;;;;;4.93;55.99;103197.44;685835;28;906;-81
2023/01/24 00:43:03;;;;;;;10.48;9.32;;;;;;;4.80;56.42;103182.47;685576;28;1208;-82
2023/01/24 00:43:26;;;;;;;9.80;8.80;;;;;;;4.81;56.36;103189.47;685739;28;1236;-81
2023/01/24 00:43:48;;;;;;;10.10;9.05;;;;;;;4.82;56.74;103180.00;683320;29;894;-82
2023/01/24 00:44:11;;;;;;;10.13;9.02;;;;;;;4.91;56.53;103189.50;688245;28;1920;-82
2023/01/24 00:44:33;;;;;;;10.50;9.00;;;;;;;4.93;56.28;103185.38;688587;28;937;-82
2023/01/24 00:44:54;;;;;;;10.38;8.65;;;;;;;4.89;56.38;103172.94;685770;28;987;-81
2023/01/24 00:45:14;;;;;;;10.00;8.75;;;;;;;4.89;56.31;103178.13;688336;28;1168;-82
2023/01/24 00:45:36;;;;;;;10.00;8.90;;;;;;;5.00;56.16;103175.56;685688;28;1469;-82
2023/01/24 00:45:57;;;;;;;9.77;8.77;;;;;;;5.00;56.14;103175.56;685764;28;1390;-82
2023/01/24 00:46:18;;;;;;;9.35;8.35;;;;;;;4.95;56.32;103172.56;685697;28;1319;-82
2023/01/24 00:46:43;;;;;;;9.15;8.15;;;;;;;4.92;56.13;103173.22;682920;28;1593;-82
2023/01/24 00:47:04;;;;;;;9.50;8.50;;;;;;;4.95;56.34;103179.47;683014;29;1214;-82
2023/01/24 00:47:25;;;;;;;9.57;8.50;;;;;;;4.87;56.62;103171.91;683060;29;1197;-82
2023/01/24 00:47:45;;;;;;;9.70;8.70;;;;;;;4.90;56.04;103168.66;683190;29;1156;-81
2023/01/24 00:48:08;;;;;;;9.70;8.70;;;;;;;4.96;56.27;103169.22;683118;29;1042;-82
2023/01/24 00:48:29;;;;;;;10.23;9.18;;;;;;;5.03;56.12;103181.06;688528;28;977;-82
2023/01/24 00:49:17;;;;;;;10.25;9.18;;;;;;;5.08;56.28;103184.94;688444;28;838;-82
2023/01/24 00:49:38;;;;;;;10.00;9.00;;;;;;;4.92;56.35;103169.72;687287;28;1174;-82
2023/01/24 00:49:58;;;;;;;9.98;8.95;;;;;;;4.90;56.66;103159.22;685816;28;1103;-83
2023/01/24 00:50:20;;;;;;;9.75;8.75;;;;;;;4.82;56.13;103152.47;685576;28;1080;-82
2023/01/24 00:50:41;;;;;;;10.20;9.10;;;;;;;4.84;56.52;103170.72;685949;28;808;-81
2023/01/24 00:51:02;;;;;;;10.13;9.05;;;;;;;4.74;56.79;103161.22;683167;29;1075;-81
2023/01/24 00:51:23;;;;;;;9.90;8.90;;;;;;;4.79;56.58;103167.72;680411;29;1460;-82
2023/01/24 00:51:45;;;;;;;9.80;8.80;;;;;;;4.78;56.62;103159.03;683221;29;890;-82
2023/01/24 00:52:06;;;;;;;10.13;9.02;;;;;;;4.78;56.61;103164.22;685631;28;1151;-81
2023/01/24 00:52:26;;;;;;;10.75;9.52;;;;;;;4.79;56.71;103166.03;683145;29;949;-81
2023/01/24 00:52:47;;;;;;;10.80;9.43;;;;;;;4.77;56.65;103157.22;688584;28;1050;-82
2023/01/24 00:53:08;;;;;;;11.15;9.43;;;;;;;4.74;56.46;103162.13;685675;28;965;-82
2023/01/24 00:53:28;;;;;;;10.50;9.02;;;;;;;4.82;56.68;103144.69;685833;28;1097;-81
2023/01/24 00:53:49;;;;;;;10.67;9.30;;;;;;;4.91;56.47;103160.16;683134;29;1255;-81
2023/01/24 00:54:09;;;;;;;10.30;9.00;;;;;;;4.95;56.13;103149.28;683108;29;1053;-82
2023/01/24 00:54:30;;;;;;;10.47;9.17;;;;;;;5.06;56.21;103165.78;683012;29;1247;-81
2023/01/24 00:54:50;;;;;;;9.60;8.60;;;;;;;5.07;56.03;103167.59;683196;29;761;-81
2023/01/24 00:55:11;;;;;;;9.60;8.60;;;;;;;5.03;55.95;103150.88;682945;29;1165;-82
2023/01/24 00:55:32;;;;;;;9.57;8.57;;;;;;;5.11;55.44;103159.34;683230;28;1456;-82
2023/01/24 00:55:54;;;;;;;9.60;8.60;;;;;;;5.04;55.72;103160.47;683312;28;1361;-82
2023/01/24 00:56:15;;;;;;;9.85;8.85;;;;;;;4.95;55.85;103153.56;683035;29;1062;-82
2023/01/24 00:56:35;;;;;;;9.55;8.55;;;;;;;4.89;55.84;103161.66;682999;29;1200;-82
2023/01/24 00:56:56;;;;;;;9.30;8.40;;;;;;;4.91;55.78;103168.81;683042;29;785;-82
2023/01/24 00:57:16;;;;;;;8.95;8.05;;;;;;;4.90;55.80;103168.66;682948;29;1286;-82
2023/01/24 00:57:43;;;;;;;9.47;8.47;;;;;;;4.90;56.30;103173.84;683156;29;1055;-82
2023/01/24 00:58:05;;;;;;;9.93;8.80;;;;;;;4.82;56.08;103162.81;680361;29;1197;-82
2023/01/24 00:58:26;;;;;;;10.30;8.93;;;;;;;4.87;56.29;103174.50;680394;29;1158;-82
2023/01/24 00:58:47;;;;;;;9.43;8.43;;;;;;;4.86;56.42;103172.69;681805;29;829;-81
2023/01/24 00:59:07;;;;;;;9.60;8.60;;;;;;;4.82;56.37;103169.66;683087;28;1082;-82
2023/01/24 00:59:30;;;;;;;9.32;8.32;;;;;;;4.78;56.63;103163.28;683200;28;933;-82
2023/01/24 00:59:50;;;;;;;9.75;8.65;;;;;;;4.89;56.38;103177.19;685887;28;1355;-82
2023/01/24 01:00:23;;;;;;;10.57;8.75;;;;;;;4.84;56.34;103161.25;682975;28;1299;-82
2023/01/24 01:00:44;;;;;;;10.45;8.68;;;;;;;4.81;56.37;103167.84;683091;28;851;-83
2023/01/24 01:01:05;;;;;;;10.00;8.80;;;;;;;4.92;55.89;103170.63;685676;28;1236;-82
2023/01/24 01:01:25;;;;;;;10.00;8.90;;;;;;;5.05;55.91;103175.22;685720;28;1173;-82
2023/01/24 01:01:46;;;;;;;9.70;8.70;;;;;;;5.04;55.99;103168.22;682993;29;1516;-82
2023/01/24 01:02:07;;;;;;;9.68;8.68;;;;;;;5.02;55.82;103158.50;685827;28;1230;-82
2023/01/24 01:02:28;;;;;;;9.60;8.60;;;;;;;4.96;55.77;103155.38;685658;28;1266;-82
2023/01/24 01:02:49;;;;;;;9.50;8.50;;;;;;;5.00;55.80;103168.75;682670;29;1285;-82
2023/01/24 01:03:13;;;;;;;9.50;8.50;;;;;;;4.90;56.04;103168.66;682964;29;1143;-82
2023/01/24 01:03:33;;;;;;;10.23;8.70;;;;;;;4.84;56.44;103158.66;683135;29;1032;-82
2023/01/24 01:03:55;;;;;;;10.20;8.70;;;;;;;4.82;56.56;103169.66;683033;29;1233;-83
2023/01/24 01:04:16;;;;;;;9.95;8.45;;;;;;;4.83;56.26;103172.38;685600;28;1048;-82
2023/01/24 01:04:37;;;;;;;9.82;8.80;;;;;;;4.81;56.62;103173.00;685618;28;1126;-82
2023/01/24 01:04:57;;;;;;;9.80;8.60;;;;;;;4.85;56.63;103181.19;683120;28;1097;-82
2023/01/24 01:05:18;;;;;;;10.20;9.10;;;;;;;4.81;56.58;103167.84;680243;29;1006;-81
2023/01/24 01:05:39;;;;;;;9.45;8.45;;;;;;;4.80;56.44;103172.13;683174;29;1196;-82
2023/01/24 01:06:00;;;;;;;10.23;9.15;;;;;;;4.90;56.60;103179.94;683093;28;963;-83
2023/01/24 01:06:21;;;;;;;10.20;9.10;;;;;;;4.80;56.95;103172.13;682948;29;1225;-82
2023/01/24 01:06:44;;;;;;;10.90;9.60;;;;;;;4.82;56.84;103165.41;683066;29;815;-82
2023/01/24 01:07:04;;;;;;;10.27;9.07;;;;;;;5.01;56.55;103182.56;683019;29;1080;-82
2023/01/24 01:07:25;;;;;;;10.23;9.02;;;;;;;4.86;56.42;103162.34;680437;29;1065;-82
2023/01/24 01:07:45;;;;;;;9.57;8.57;;;;;;;4.91;56.56;103165.34;681216;29;1246;-83
2023/01/24 01:08:06;;;;;;;9.80;8.75;;;;;;;4.96;56.41;103169.22;681406;28;1111;-82
2023/01/24 01:08:27;;;;;;;10.00;8.77;;;;;;;4.96;56.34;103176.97;685743;28;981;-81
2023/01/24 01:08:48;;;;;;;9.90;8.90;;;;;;;4.90;56.44;103169.59;686035;28;1318;-82
2023/01/24 01:09:08;;;;;;;10.52;9.43;;;;;;;4.85;56.47;103175.13;685481;28;1137;-82
2023/01/24 01:09:29;;;;;;;10.80;9.70;;;;;;;4.84;56.60;103170.72;685742;28;1016;-82
2023/01/24 01:09:50;;;;;;;10.77;9.68;;;;;;;4.79;56.47;103165.13;685646;28;1058;-82
2023/01/24 01:10:10;;;;;;;10.18;9.18;;;;;;;4.82;56.69;103178.34;683027;29;1057;-82
2023/01/24 01:10:31;;;;;;;9.75;8.75;;;;;;;4.77;56.84;103171.81;685692;28;1274;-82
2023/01/24 01:10:52;;;;;;;9.70;8.70;;;;;;;4.76;57.07;103175.19;683197;29;1000;-82
2023/01/24 01:11:13;;;;;;;9.83;8.80;;;;;;;4.80;56.77;103166.94;685569;28;1155;-82
2023/01/24 01:11:33;;;;;;;10.20;9.07;;;;;;;4.83;56.80;103167.22;683078;29;1540;-82
2023/01/24 01:11:54;;;;;;;10.45;9.30;;;;;;;4.89;56.47;103175.53;680773;29;1120;-82
2023/01/24 01:12:14;;;;;;;11.07;9.63;;;;;;;4.82;56.72;103174.81;682104;29;1138;-82
2023/01/24 01:12:35;;;;;;;10.32;9.05;;;;;;;4.77;56.50;103174.41;685714;28;1009;-82
2023/01/24 01:12:56;;;;;;;10.55;9.38;;;;;;;4.79;56.76;103170.31;685799;28;1330;-82
2023/01/24 01:13:17;;;;;;;10.65;9.50;;;;;;;4.81;56.65;103163.59;683074;29;1015;-83
2023/01/24 01:13:38;;;;;;;11.10;9.90;;;;;;;4.78;56.80;103168.47;683084;28;1100;-82
2023/01/24 01:13:59;;;;;;;10.60;9.32;;;;;;;4.84;56.81;103169.03;683118;29;1175;-82
2023/01/24 01:14:20;;;;;;;10.10;9.00;;;;;;;4.93;56.52;103176.72;682978;28;1220;-83
2023/01/24 01:14:40;;;;;;;10.07;8.80;;;;;;;4.82;56.77;103178.34;683087;29;1161;-82
2023/01/24 01:15:01;;;;;;;10.37;9.00;;;;;;;4.76;56.66;103170.00;683098;29;950;-83
2023/01/24 01:15:22;;;;;;;10.50;9.18;;;;;;;4.81;56.67;103181.69;680405;29;1188;-82
2023/01/24 01:15:44;;;;;;;10.48;9.35;;;;;;;4.75;56.57;103178.53;680453;29;886;-81
2023/01/24 01:16:11;;;;;;;10.70;9.40;;;;;;;4.72;57.01;103176.59;685788;28;1235;-82
2023/01/24 01:16:32;;;;;;;11.23;9.50;;;;;;;4.80;56.94;103182.47;688412;28;1331;-82
2023/01/24 01:16:53;;;;;;;11.88;9.65;;;;;;;4.74;56.83;103179.31;688362;28;858;-83
2023/01/24 01:17:14;;;;;;;11.30;9.38;;;;;;;4.76;57.03;103185.53;685663;28;1169;-82
2023/01/24 01:17:35;;;;;;;10.90;9.10;;;;;;;4.73;57.00;103180.09;687097;28;1057;-82
2023/01/24 01:17:57;;;;;;;9.95;8.73;;;;;;;4.73;57.10;103180.09;688549;28;837;-81
2023/01/24 01:18:18;;;;;;;10.25;9.15;;;;;;;4.74;56.78;103179.31;686419;28;1018;-82
2023/01/24 01:18:39;;;;;;;10.32;9.20;;;;;;;4.75;56.77;103184.63;686214;28;1307;-82
2023/01/24 01:19:00;;;;;;;10.30;9.13;;;;;;;4.75;57.09;103182.06;686485;28;1173;-82
2023/01/24 01:19:20;;;;;;;10.45;9.05;;;;;;;4.77;57.01;103184.75;686004;28;1906;-82
2023/01/24 01:19:42;;;;;;;10.40;9.23;;;;;;;4.77;57.07;103187.34;684089;28;1268;-82
2023/01/24 01:20:04;;;;;;;10.96;9.60;;;;;;;4.73;57.04;103182.69;685611;28;1016;-82
2023/01/24 01:20:26;;;;;;;11.35;9.80;;;;;;;4.75;57.21;103188.91;685735;28;1233;-82
2023/01/24 01:20:50;;;;;;;11.07;9.70;;;;;;;4.68;57.11;103176.16;683134;29;929;-82
2023/01/24 01:21:13;;;;;;;11.68;9.75;;;;;;;4.67;57.01;103176.94;685650;28;1076;-82
2023/01/24 01:21:34;;;;;;;11.70;9.93;;;;;;;4.64;57.23;103175.91;685643;28;1196;-81
2023/01/24 01:21:54;;;;;;;11.82;9.70;;;;;;;4.64;57.33;103178.50;685791;28;1367;-82
2023/01/24 01:22:16;;;;;;;11.18;9.73;;;;;;;4.64;57.22;103181.06;682942;29;1401;-82
2023/01/24 01:22:37;;;;;;;11.43;9.80;;;;;;;4.63;57.29;103180.94;683093;29;1085;-82
2023/01/24 01:22:58;;;;;;;10.60;9.50;;;;;;;4.71;57.00;103197.16;682983;28;1037;-81
2023/01/24 01:23:19;;;;;;;10.17;9.07;;;;;;;4.67;57.13;103188.22;682994;28;1178;-82
2023/01/24 01:23:40;;;;;;;9.85;8.85;;;;;;;4.72;57.07;103186.94;680189;28;1288;-82
2023/01/24 01:24:01;;;;;;;10.60;9.50;;;;;;;4.69;57.26;103189.25;680503;29;1037;-82
2023/01/24 01:24:21;;;;;;;10.60;9.50;;;;;;;4.75;57.04;103195.00;685524;28;1148;-82
2023/01/24 01:24:42;;;;;;;10.70;9.50;;;;;;;4.69;57.18;103177.97;683121;29;1169;-81
2023/01/24 01:25:03;;;;;;;10.40;9.30;;;;;;;4.71;57.11;103182.53;682968;29;1176;-81
2023/01/24 01:25:23;;;;;;;10.50;9.40;;;;;;;4.67;57.03;103183.03;685672;28;1234;-82
2023/01/24 01:25:44;;;;;;;10.70;9.60;;;;;;;4.65;57.29;103175.13;688436;28;1190;-82
2023/01/24 01:26:14;;;;;;;10.25;9.15;;;;;;;4.72;56.91;103196.38;688498;28;1116;-81
2023/01/24 01:26:36;;;;;;;10.00;8.95;;;;;;;4.77;56.86;103179.59;688387;28;1178;-81
2023/01/24 01:26:56;;;;;;;10.30;9.18;;;;;;;4.92;56.47;103199.09;688227;28;862;-82
2023/01/24 01:27:19;;;;;;;10.10;9.00;;;;;;;4.92;56.26;103193.91;688436;28;1299;-82
2023/01/24 01:27:40;;;;;;;10.48;9.07;;;;;;;5.01;56.20;103198.09;685710;28;1115;-81
2023/01/24 01:28:00;;;;;;;10.98;9.07;;;;;;;4.95;56.33;103184.63;688284;28;1297;-83
2023/01/24 01:28:21;;;;;;;11.38;9.40;;;;;;;4.95;56.00;103182.03;688296;28;995;-82
2023/01/24 01:28:41;;;;;;;10.20;9.10;;;;;;;4.99;56.12;103184.13;688489;28;1060;-82
2023/01/24 01:29:02;;;;;;;10.20;9.10;;;;;;;5.05;56.17;103195.91;685587;28;1153;-82
2023/01/24 01:29:22;;;;;;;9.60;8.60;;;;;;;5.00;56.51;103204.03;685237;28;1105;-82
2023/01/24 01:29:43;;;;;;;9.80;8.80;;;;;;;4.84;56.32;103189.72;683068;29;1503;-82
2023/01/24 01:30:04;;;;;;;10.07;9.07;;;;;;;4.84;56.66;103188.84;682722;28;1225;-82
2023/01/24 01:30:25;;;;;;;10.43;9.38;;;;;;;5.00;56.63;103201.47;683095;28;989;-82
2023/01/24 01:30:52;;;;;;;11.07;9.88;;;;;;;4.96;56.13;103183.84;688354;28;909;-82
2023/01/24 01:31:14;;;;;;;10.38;9.25;;;;;;;5.02;56.23;103195.66;682882;28;997;-82
2023/01/24 01:31:35;;;;;;;10.70;9.50;;;;;;;5.03;56.28;103196.59;683106;29;1024;-82
2023/01/24 01:31:56;;;;;;;10.95;9.70;;;;;;;5.01;56.45;103188.66;685760;28;893;-82
2023/01/24 01:32:25;;;;;;;11.53;9.87;;;;;;;5.04;56.13;103194.09;688355;28;1162;-82
2023/01/24 01:32:46;;;;;;;10.80;9.50;;;;;;;5.02;56.22;103193.06;685803;28;850;-82
2023/01/24 01:33:07;;;;;;;10.43;9.30;;;;;;;4.98;56.45;103182.31;685703;28;977;-82
2023/01/24 01:33:28;;;;;;;10.43;9.27;;;;;;;4.98;56.07;103179.72;682949;29;1038;-82
2023/01/24 01:33:48;;;;;;;10.15;8.90;;;;;;;5.02;55.91;103184.38;683115;29;1226;-82
2023/01/24 01:34:10;;;;;;;10.20;9.05;;;;;;;5.04;56.27;103194.09;680333;29;1290;-82
2023/01/24 01:34:31;;;;;;;9.98;8.98;;;;;;;5.01;56.19;103182.56;683012;28;1595;-82
2023/01/24 01:34:52;;;;;;;9.87;8.87;;;;;;;4.98;56.05;103192.66;688472;28;1147;-81
2023/01/24 01:35:13;;;;;;;9.80;8.80;;;;;;;5.03;56.38;103194.00;685575;28;1149;-82
2023/01/24 01:35:34;;;;;;;9.90;8.85;;;;;;;5.03;56.24;103191.41;688426;28;1123;-82
2023/01/24 01:35:54;;;;;;;10.60;9.10;;;;;;;5.06;56.13;103194.25;691068;28;1343;-82
2023/01/24 01:36:15;;;;;;;10.60;9.03;;;;;;;5.01;56.08;103188.66;688201;28;1048;-82
2023/01/24 01:36:35;;;;;;;10.83;9.13;;;;;;;5.04;56.04;103194.09;685656;28;1125;-82
2023/01/24 01:36:56;;;;;;;10.75;9.13;;;;;;;5.07;56.02;103193.47;688288;28;771;-82
2023/01/24 01:37:17;;;;;;;10.20;8.73;;;;;;;5.04;55.70;103188.03;682916;28;1243;-82
2023/01/24 01:37:39;;;;;;;9.07;8.18;;;;;;;5.03;56.06;103183.63;685592;28;1386;-82
2023/01/24 01:37:59;;;;;;;8.70;7.90;;;;;;;5.02;56.15;103187.91;688257;28;1203;-81
2023/01/24 01:38:20;;;;;;;9.18;8.27;;;;;;;5.06;55.80;103190.00;688302;28;1072;-82
2023/01/24 01:38:41;;;;;;;10.07;9.02;;;;;;;5.07;56.21;103197.00;685742;28;1188;-82
2023/01/24 01:39:02;;;;;;;10.25;9.10;;;;;;;5.02;56.19;103184.38;682960;29;1069;-82
2023/01/24 01:39:23;;;;;;;9.80;8.80;;;;;;;5.10;55.88;103198.03;682871;29;1921;-82
2023/01/24 01:39:43;;;;;;;9.23;8.32;;;;;;;5.07;55.87;103193.47;683172;28;972;-81
2023/01/24 01:40:05;;;;;;;9.30;8.40;;;;;;;5.07;55.91;103191.81;679920;29;1290;-81
2023/01/24 01:40:26;;;;;;;9.32;8.32;;;;;;;5.06;55.64;103183.91;685686;28;1485;-82
2023/01/24 01:40:47;;;;;;;8.97;8.07;;;;;;;5.09;55.87;103198.81;685721;28;1510;-82
2023/01/24 01:41:08;;;;;;;9.10;8.20;;;;;;;5.04;55.58;103183.75;685781;28;1066;-82
2023/01/24 01:41:29;;;;;;;9.60;8.60;;;;;;;5.06;55.88;103192.59;685771;28;1100;-82
2023/01/24 01:41:49;;;;;;;10.00;9.00;;;;;;;5.05;56.07;103187.25;685851;28;819;-81
2023/01/24 01:42:22;;;;;;;9.70;8.70;;;;;;;5.03;55.72;103186.22;685812;28;759;-82
2023/01/24 01:42:52;;;;;;;9.20;8.20;;;;;;;5.07;55.69;103194.41;683073;28;874;-82
2023/01/24 01:43:21;;;;;;;10.30;8.48;;;;;;;5.10;55.85;103198.03;682776;29;1074;-81